Ana Sayfa
METAR-TAF:

METAR-TAF

Havaalanları :

Norwood Memorial Airport

Norwood, Massachusetts, Amerika Birleşik Devletleri

Enlem: 42-11-27N, Boylam: 071-10-26W, yükseklik: 15 m

Güncel hava durumu gözlemi

Rapor saat 21:53 UTC de 1 saat ve 27 dakika önce yapıldı.
Rüzgar doğu/kuzeydoğudan 7 kt
Sıcaklık 21°C
Nem 64%
Basınç 1015 hPa
Görüş mesafesi: 16.1 km
2000 ft yükseklikte çok bulutlu

METAR: KOWD 182153Z 06007KT 10SM OVC020 21/14 A2997 RMK AO2 SLP146 T02060139

Saat: 19:20 (23:20 UTC)


TAF: eksik

4.000'den fazla havaalanı için hava durumu gözlemleri ve tahminleri (METAR ve TAF raporları).

Kullanılabilir istasyonlar harita üzerinde sarı ve kırmızı noktalarla gösterilir.

İstasyonun adını görmek için fareyi noktanın üzerinde gezdirin.

Sonrasında hava gözlem ve tahminlerini görmek için tıklayın.

Haritayı değiştirmek için: yaklaştırmak için siyah artı işaretli yeşil düğmeye ve uzaklaştırmak için de eksi işaretli düğmeye hızla tıklayın; bitişik haritalar için yeşil okları kullanın.


METAR-TAF: